createdAt,value
2023-01-21T00:01:14.916Z,100730.06
2023-01-21T00:03:42.719Z,100727.81
2023-01-21T00:06:10.414Z,100733.69
2023-01-21T00:08:37.541Z,100736.69
2023-01-21T00:11:11.462Z,100743.97
2023-01-21T00:13:38.450Z,100737.09
2023-01-21T00:16:06.470Z,100741.56
2023-01-21T00:18:34.666Z,100741.81
2023-01-21T00:21:02.322Z,100743.63
2023-01-21T00:23:29.453Z,100747.69
2023-01-21T00:26:05.865Z,100745.19
2023-01-21T00:28:34.911Z,100745.69
2023-01-21T00:31:05.357Z,100750.22
2023-01-21T00:33:33.556Z,100751.88
2023-01-21T00:36:13.936Z,100753.06
2023-01-21T00:38:41.284Z,100757.66
2023-01-21T00:41:12.575Z,100754.03
2023-01-21T00:43:43.504Z,100758.47
2023-01-21T00:46:11.342Z,100761.97
2023-01-21T00:48:38.475Z,100766.47
2023-01-21T00:51:05.768Z,100763.19
2023-01-21T00:53:35.978Z,100767.78
2023-01-21T00:56:06.653Z,100764.34
2023-01-21T00:58:34.812Z,100774.03
2023-01-21T01:01:11.312Z,100773.88
2023-01-21T01:03:40.238Z,100773.03
2023-01-21T01:06:17.491Z,100782.91
2023-01-21T01:08:45.684Z,100781.56
2023-01-21T01:11:14.119Z,100789.53
2023-01-21T01:13:41.595Z,100787.00
2023-01-21T01:16:10.996Z,100787.56
2023-01-21T01:18:38.153Z,100790.84
2023-01-21T01:21:06.107Z,100795.47
2023-01-21T01:23:33.203Z,100796.09
2023-01-21T01:26:06.610Z,100799.91
2023-01-21T01:28:34.602Z,100801.97
2023-01-21T01:31:05.565Z,100803.56
2023-01-21T01:33:33.360Z,100814.56
2023-01-21T01:36:10.766Z,100819.97
2023-01-21T01:38:37.648Z,100820.22
2023-01-21T01:41:04.973Z,100819.53
2023-01-21T01:44:26.226Z,100829.59
2023-01-21T01:46:56.998Z,100837.88
2023-01-21T01:49:24.137Z,100835.94
2023-01-21T01:51:58.118Z,100833.38
2023-01-21T01:54:30.434Z,100839.13
2023-01-21T01:57:02.010Z,100847.75
2023-01-21T01:59:30.447Z,100844.81
2023-01-21T02:02:01.050Z,100848.28
2023-01-21T02:04:34.671Z,100845.13
2023-01-21T02:07:01.853Z,100849.56
2023-01-21T02:09:30.005Z,100841.28
2023-01-21T02:11:59.898Z,100845.28
2023-01-21T02:14:28.577Z,100851.06
2023-01-21T02:17:45.662Z,100857.81
2023-01-21T02:20:24.522Z,100861.66
2023-01-21T02:23:49.389Z,100867.09
2023-01-21T02:26:48.889Z,100868.00
2023-01-21T02:29:40.217Z,100863.66
2023-01-21T02:33:03.474Z,100861.97
2023-01-21T02:35:59.661Z,100867.31
2023-01-21T02:38:31.511Z,100876.09
2023-01-21T02:41:35.730Z,100863.69
2023-01-21T02:44:15.202Z,100870.72
2023-01-21T02:46:56.675Z,100873.47
2023-01-21T02:49:52.932Z,100876.94
2023-01-21T02:52:23.445Z,100877.00
2023-01-21T02:54:57.203Z,100882.78
2023-01-21T02:57:56.580Z,100873.50
2023-01-21T03:00:42.503Z,100874.94
2023-01-21T03:03:23.284Z,100887.25
2023-01-21T03:06:20.067Z,100893.59
2023-01-21T03:09:25.484Z,100897.06
2023-01-21T03:12:20.534Z,100902.13
2023-01-21T03:15:19.721Z,100904.50
2023-01-21T03:18:08.522Z,100903.22
2023-01-21T03:20:44.000Z,100913.22
2023-01-21T03:23:19.516Z,100913.56
2023-01-21T03:25:48.655Z,100920.97
2023-01-21T03:28:22.076Z,100922.31
2023-01-21T03:31:00.241Z,100928.31
2023-01-21T03:33:30.738Z,100928.25
2023-01-21T03:36:00.852Z,100924.75
2023-01-21T03:38:37.624Z,100928.25
2023-01-21T03:41:13.658Z,100932.66
2023-01-21T03:43:40.820Z,100928.81
2023-01-21T03:46:12.717Z,100930.63
2023-01-21T03:48:49.225Z,100942.72
2023-01-21T03:51:22.787Z,100941.91
2023-01-21T03:53:58.060Z,100941.16
2023-01-21T03:56:28.624Z,100938.72
2023-01-21T03:58:55.636Z,100948.94
2023-01-21T04:01:22.931Z,100954.38
2023-01-21T04:03:49.887Z,100952.84
2023-01-21T04:06:20.643Z,100958.03
2023-01-21T04:08:48.653Z,100964.75
2023-01-21T04:11:15.978Z,100970.53
2023-01-21T04:13:43.158Z,100960.19
2023-01-21T04:16:10.108Z,100969.75
2023-01-21T04:18:37.044Z,100968.44
2023-01-21T04:21:04.133Z,100974.28
2023-01-21T04:23:31.183Z,100973.06
2023-01-21T04:25:58.102Z,100978.28
2023-01-21T04:28:25.048Z,100980.53
2023-01-21T04:30:52.125Z,100978.16
2023-01-21T04:33:19.042Z,100990.03
2023-01-21T04:35:45.964Z,100992.53
2023-01-21T04:38:13.788Z,101001.28
2023-01-21T04:40:40.708Z,100997.53
2023-01-21T04:43:07.986Z,100999.44
2023-01-21T04:45:34.997Z,101005.84
2023-01-21T04:48:01.985Z,101003.19
2023-01-21T04:50:28.918Z,101008.78
2023-01-21T04:52:55.805Z,101004.97
2023-01-21T04:55:24.244Z,101015.28
2023-01-21T04:57:53.005Z,101002.97
2023-01-21T05:00:20.351Z,101015.84
2023-01-21T05:02:47.226Z,101013.84
2023-01-21T05:05:14.270Z,101014.84
2023-01-21T05:07:41.132Z,101018.84
2023-01-21T05:10:09.920Z,101017.44
2023-01-21T05:12:36.840Z,101029.47
2023-01-21T05:15:04.849Z,101035.25
2023-01-21T05:17:31.716Z,101033.00
2023-01-21T05:19:58.611Z,101045.75
2023-01-21T05:22:25.584Z,101044.59
2023-01-21T05:24:52.440Z,101037.84
2023-01-21T05:27:21.653Z,101042.19
2023-01-21T05:29:48.881Z,101038.28
2023-01-21T05:32:15.791Z,101046.97
2023-01-21T05:34:42.761Z,101051.97
2023-01-21T05:37:10.966Z,101055.34
2023-01-21T05:39:37.855Z,101062.16
2023-01-21T05:42:04.831Z,101061.75
2023-01-21T05:44:31.719Z,101061.81
2023-01-21T05:46:58.573Z,101070.03
2023-01-21T05:49:25.545Z,101076.41
2023-01-21T05:51:52.462Z,101086.97
2023-01-21T05:54:19.435Z,101088.50
2023-01-21T05:56:46.336Z,101094.66
2023-01-21T05:59:13.342Z,101097.63
2023-01-21T06:01:40.202Z,101101.44
2023-01-21T06:04:07.136Z,101106.19
2023-01-21T06:06:34.172Z,101110.78
2023-01-21T06:09:01.094Z,101110.72
2023-01-21T06:11:28.044Z,101117.47
2023-01-21T06:13:54.914Z,101117.72
2023-01-21T06:16:21.762Z,101120.97
2023-01-21T06:18:48.680Z,101114.03
2023-01-21T06:21:15.674Z,101114.91
2023-01-21T06:23:42.902Z,101121.50
2023-01-21T06:26:09.779Z,101131.81
2023-01-21T06:28:36.663Z,101128.50
2023-01-21T06:31:03.691Z,101134.47
2023-01-21T06:33:30.658Z,101139.34
2023-01-21T06:35:57.560Z,101142.50
2023-01-21T06:38:24.587Z,101142.47
2023-01-21T06:40:51.478Z,101144.03
2023-01-21T06:43:18.364Z,101147.94
2023-01-21T06:45:48.009Z,101159.13
2023-01-21T06:48:14.901Z,101157.91
2023-01-21T06:50:41.819Z,101165.16
2023-01-21T06:53:08.782Z,101175.84
2023-01-21T06:55:35.674Z,101175.91
2023-01-21T06:58:02.556Z,101171.69
2023-01-21T07:00:29.632Z,101174.03
2023-01-21T07:02:59.762Z,101178.47
2023-01-21T07:05:27.508Z,101171.69
2023-01-21T07:07:56.066Z,101166.69
2023-01-21T07:10:26.485Z,101174.91
2023-01-21T07:12:53.398Z,101182.94
2023-01-21T07:15:20.337Z,101176.72
2023-01-21T07:17:47.272Z,101191.41
2023-01-21T07:20:14.350Z,101184.53
2023-01-21T07:22:41.244Z,101195.94
2023-01-21T07:25:09.192Z,101196.63
2023-01-21T07:27:36.130Z,101193.72
2023-01-21T07:30:03.156Z,101183.91
2023-01-21T07:32:30.115Z,101191.28
2023-01-21T07:34:56.994Z,101189.13
2023-01-21T07:37:23.911Z,101201.25
2023-01-21T07:39:52.229Z,101204.41
2023-01-21T07:42:20.010Z,101210.81
2023-01-21T07:44:47.004Z,101214.44
2023-01-21T07:47:13.911Z,101215.22
2023-01-21T07:49:41.459Z,101218.13
2023-01-21T07:52:08.357Z,101224.47
2023-01-21T07:54:35.306Z,101220.97
2023-01-21T07:57:02.236Z,101225.81
2023-01-21T07:59:29.115Z,101224.00
2023-01-21T08:01:57.924Z,101233.56
2023-01-21T08:04:25.439Z,101241.44
2023-01-21T08:06:56.894Z,101236.69
2023-01-21T08:09:24.909Z,101235.53
2023-01-21T08:11:52.405Z,101240.69
2023-01-21T08:14:19.383Z,101242.22
2023-01-21T08:16:46.305Z,101234.28
2023-01-21T08:19:14.015Z,101249.91
2023-01-21T08:21:41.109Z,101254.59
2023-01-21T08:24:10.493Z,101254.88
2023-01-21T08:26:37.604Z,101254.69
2023-01-21T08:29:04.545Z,101257.22
2023-01-21T08:31:31.669Z,101266.69
2023-01-21T08:33:59.557Z,101268.72
2023-01-21T08:36:26.838Z,101273.13
2023-01-21T08:38:55.331Z,101279.22
2023-01-21T08:41:22.283Z,101274.25
2023-01-21T08:43:49.314Z,101276.50
2023-01-21T08:46:16.290Z,101282.44
2023-01-21T08:48:43.238Z,101275.41
2023-01-21T08:51:10.403Z,101280.63
2023-01-21T08:53:37.331Z,101276.75
2023-01-21T08:56:05.736Z,101278.00
2023-01-21T08:58:33.019Z,101283.38
2023-01-21T09:01:08.310Z,101279.41
2023-01-21T09:03:35.611Z,101274.84
2023-01-21T09:06:03.998Z,101281.53
2023-01-21T09:08:31.169Z,101274.16
2023-01-21T09:11:03.069Z,101275.47
2023-01-21T09:13:32.225Z,101279.94
2023-01-21T09:16:00.571Z,101280.84
2023-01-21T09:18:27.949Z,101272.84
2023-01-21T09:21:00.499Z,101280.16
2023-01-21T09:23:28.148Z,101270.63
2023-01-21T09:26:02.305Z,101270.53
2023-01-21T09:28:30.589Z,101278.59
2023-01-21T09:31:07.303Z,101282.41
2023-01-21T09:33:38.316Z,101281.25
2023-01-21T09:36:07.658Z,101292.19
2023-01-21T09:38:34.991Z,101289.19
2023-01-21T09:41:50.620Z,101292.34
2023-01-21T09:44:23.672Z,101301.03
2023-01-21T09:47:02.272Z,101303.31
2023-01-21T09:49:42.411Z,101306.91
2023-01-21T09:52:38.009Z,101310.78
2023-01-21T09:55:12.178Z,101315.69
2023-01-21T09:58:20.709Z,101310.00
2023-01-21T10:01:24.522Z,101297.75
2023-01-21T10:04:30.018Z,101294.91
2023-01-21T10:07:17.105Z,101296.44
2023-01-21T10:09:47.052Z,101303.84
2023-01-21T10:13:05.987Z,101308.75
2023-01-21T10:15:35.724Z,101309.59
2023-01-21T10:18:13.160Z,101306.00
2023-01-21T10:21:05.822Z,101307.69
2023-01-21T10:23:39.529Z,101308.00
2023-01-21T10:26:11.985Z,101298.72
2023-01-21T10:28:48.071Z,101307.25
2023-01-21T10:31:32.781Z,101311.50
2023-01-21T10:33:59.734Z,101313.19
2023-01-21T10:36:35.008Z,101314.22
2023-01-21T10:39:27.182Z,101307.34
2023-01-21T10:42:03.859Z,101315.44
2023-01-21T10:45:01.523Z,101303.91
2023-01-21T10:47:59.664Z,101301.72
2023-01-21T10:50:50.453Z,101309.53
2023-01-21T10:53:31.088Z,101295.47
2023-01-21T10:56:36.339Z,101290.94
2023-01-21T10:59:09.706Z,101293.69
2023-01-21T11:01:45.388Z,101297.84
2023-01-21T11:04:21.463Z,101300.41
2023-01-21T11:07:02.404Z,101295.50
2023-01-21T11:09:35.321Z,101285.59
2023-01-21T11:12:03.013Z,101286.91
2023-01-21T11:14:30.063Z,101279.81
2023-01-21T11:16:58.138Z,101276.78
2023-01-21T11:19:30.904Z,101283.97
2023-01-21T11:22:12.539Z,101278.38
2023-01-21T11:24:48.814Z,101282.34
2023-01-21T11:27:37.565Z,101269.69
2023-01-21T11:30:21.078Z,101272.41
2023-01-21T11:32:54.390Z,101283.66
2023-01-21T11:35:23.152Z,101283.66
2023-01-21T11:37:50.194Z,101280.53
2023-01-21T11:40:25.749Z,101283.91
2023-01-21T11:42:56.112Z,101278.50
2023-01-21T11:45:36.836Z,101284.50
2023-01-21T11:48:24.071Z,101279.28
2023-01-21T11:51:05.808Z,101276.97
2023-01-21T11:53:32.847Z,101282.00
2023-01-21T11:56:01.303Z,101275.78
2023-01-21T11:58:37.854Z,101283.97
2023-01-21T12:01:19.412Z,101291.84
2023-01-21T12:03:53.923Z,101287.03
2023-01-21T12:06:25.999Z,101293.97
2023-01-21T12:08:57.354Z,101285.13
2023-01-21T12:11:27.141Z,101292.06
2023-01-21T12:14:34.496Z,101295.81
2023-01-21T12:17:21.927Z,101301.19
2023-01-21T12:20:11.852Z,101307.56
2023-01-21T12:22:46.314Z,101297.03
2023-01-21T12:25:42.238Z,101296.31
2023-01-21T12:28:21.577Z,101300.69
2023-01-21T12:31:23.845Z,101304.97
2023-01-21T12:34:15.928Z,101304.22
2023-01-21T12:36:53.195Z,101303.19
2023-01-21T12:39:35.832Z,101306.72
2023-01-21T12:42:21.426Z,101298.19
2023-01-21T12:44:52.357Z,101294.91
2023-01-21T12:47:32.942Z,101305.00
2023-01-21T12:50:29.379Z,101298.16
2023-01-21T12:53:06.053Z,101304.72
2023-01-21T12:56:08.057Z,101308.72
2023-01-21T12:59:07.414Z,101297.00
2023-01-21T13:02:05.907Z,101311.28
2023-01-21T13:04:56.521Z,101316.19
2023-01-21T13:07:55.276Z,101319.25
2023-01-21T13:10:40.901Z,101309.47
2023-01-21T13:13:21.307Z,101311.06
2023-01-21T13:15:54.145Z,101309.06
2023-01-21T13:18:50.280Z,101311.34
2023-01-21T13:21:54.027Z,101309.97
2023-01-21T13:24:53.071Z,101310.06
2023-01-21T13:27:40.388Z,101305.22
2023-01-21T13:30:20.026Z,101318.31
2023-01-21T13:33:06.388Z,101322.59
2023-01-21T13:35:57.925Z,101313.88
2023-01-21T13:39:01.647Z,101308.69
2023-01-21T13:42:32.933Z,101306.91
2023-01-21T13:45:18.204Z,101308.50
2023-01-21T13:48:16.266Z,101310.84
2023-01-21T13:51:07.720Z,101309.19
2023-01-21T13:54:04.479Z,101312.78
2023-01-21T13:56:43.232Z,101313.50
2023-01-21T13:59:21.648Z,101313.41
2023-01-21T14:02:00.587Z,101318.50
2023-01-21T14:04:39.069Z,101319.72
2023-01-21T14:07:38.283Z,101314.50
2023-01-21T14:10:22.528Z,101318.22
2023-01-21T14:13:20.839Z,101310.47
2023-01-21T14:16:29.631Z,101320.88
2023-01-21T14:19:13.201Z,101322.50
2023-01-21T14:22:04.394Z,101305.69
2023-01-21T14:24:46.250Z,101321.75
2023-01-21T14:27:27.913Z,101315.19
2023-01-21T14:30:22.991Z,101316.75
2023-01-21T14:33:07.909Z,101325.19
2023-01-21T14:35:49.288Z,101327.75
2023-01-21T14:39:06.433Z,101340.69
2023-01-21T14:42:04.451Z,101344.94
2023-01-21T14:44:40.323Z,101336.78
2023-01-21T14:47:24.786Z,101346.00
2023-01-21T14:49:54.347Z,101341.75
2023-01-21T14:52:37.198Z,101335.78
2023-01-21T14:55:29.555Z,101343.66
2023-01-21T14:58:00.681Z,101358.66
2023-01-21T15:00:36.878Z,101349.34
2023-01-21T15:03:30.479Z,101349.44
2023-01-21T15:06:09.057Z,101343.47
2023-01-21T15:08:46.122Z,101337.81
2023-01-21T15:11:30.416Z,101336.72
2023-01-21T15:14:23.427Z,101339.38
2023-01-21T15:16:50.627Z,101351.84
2023-01-21T15:19:31.164Z,101351.09
2023-01-21T15:22:19.088Z,101357.16
2023-01-21T15:25:06.665Z,101351.94
2023-01-21T15:27:33.563Z,101349.28
2023-01-21T15:30:06.252Z,101358.09
2023-01-21T15:32:41.027Z,101360.28
2023-01-21T15:35:33.644Z,101363.31
2023-01-21T15:38:12.539Z,101366.59
2023-01-21T15:40:53.721Z,101362.84
2023-01-21T15:43:54.956Z,101362.84
2023-01-21T15:46:52.640Z,101355.38
2023-01-21T15:50:16.043Z,101355.41
2023-01-21T15:53:14.039Z,101352.16
2023-01-21T15:56:17.945Z,101363.16
2023-01-21T15:59:25.080Z,101355.44
2023-01-21T16:02:08.483Z,101358.50
2023-01-21T16:04:55.155Z,101370.88
2023-01-21T16:08:12.304Z,101360.44
2023-01-21T16:10:58.700Z,101374.09
2023-01-21T16:13:37.372Z,101365.63
2023-01-21T16:16:39.829Z,101368.94
2023-01-21T16:19:11.661Z,101375.00
2023-01-21T16:21:43.897Z,101375.88
2023-01-21T16:24:19.047Z,101386.16
2023-01-21T16:26:46.208Z,101384.50
2023-01-21T16:29:15.163Z,101380.16
2023-01-21T16:31:52.353Z,101385.31
2023-01-21T16:34:40.252Z,101389.50
2023-01-21T16:37:13.404Z,101387.03
2023-01-21T16:39:41.931Z,101390.28
2023-01-21T16:42:36.995Z,101378.06
2023-01-21T16:45:21.632Z,101383.56
2023-01-21T16:48:00.639Z,101387.00
2023-01-21T16:50:29.771Z,101386.03
2023-01-21T16:52:59.281Z,101388.88
2023-01-21T16:55:30.896Z,101392.81
2023-01-21T16:57:59.538Z,101385.88
2023-01-21T17:00:32.339Z,101382.44
2023-01-21T17:03:00.535Z,101392.09
2023-01-21T17:05:33.827Z,101384.50
2023-01-21T17:08:04.460Z,101393.72
2023-01-21T17:10:40.376Z,101387.00
2023-01-21T17:13:16.091Z,101390.28
2023-01-21T17:15:59.938Z,101386.81
2023-01-21T17:18:36.748Z,101391.84
2023-01-21T17:21:36.878Z,101400.19
2023-01-21T17:24:15.239Z,101385.47
2023-01-21T17:26:49.898Z,101392.19
2023-01-21T17:29:21.747Z,101395.38
2023-01-21T17:31:58.428Z,101389.22
2023-01-21T17:34:32.139Z,101400.47
2023-01-21T17:36:59.918Z,101394.53
2023-01-21T17:39:49.134Z,101401.38
2023-01-21T17:42:23.795Z,101396.28
2023-01-21T17:44:58.173Z,101399.66
2023-01-21T17:47:49.093Z,101402.44
2023-01-21T17:50:27.603Z,101418.50
2023-01-21T17:53:01.599Z,101403.38
2023-01-21T17:55:33.725Z,101403.00
2023-01-21T17:58:32.504Z,101399.72
2023-01-21T18:01:04.351Z,101421.94
2023-01-21T18:03:31.284Z,101405.72
2023-01-21T18:05:58.544Z,101416.81
2023-01-21T18:08:25.735Z,101408.09
2023-01-21T18:10:52.802Z,101409.78
2023-01-21T18:13:21.989Z,101416.44
2023-01-21T18:15:51.599Z,101421.34
2023-01-21T18:18:27.948Z,101406.13
2023-01-21T18:20:55.340Z,101407.06
2023-01-21T18:23:22.323Z,101407.06
2023-01-21T18:25:52.533Z,101408.72
2023-01-21T18:28:28.957Z,101417.34
2023-01-21T18:30:57.885Z,101407.78
2023-01-21T18:33:25.818Z,101413.56
2023-01-21T18:35:53.158Z,101412.03
2023-01-21T18:38:27.218Z,101413.84
2023-01-21T18:40:56.373Z,101414.69
2023-01-21T18:43:25.249Z,101416.44
2023-01-21T18:45:54.497Z,101401.13
2023-01-21T18:48:28.440Z,101407.06
2023-01-21T18:50:55.976Z,101406.16
2023-01-21T18:53:23.037Z,101404.84
2023-01-21T18:55:53.649Z,101407.31
2023-01-21T18:58:20.721Z,101413.38
2023-01-21T19:00:48.127Z,101411.72
2023-01-21T19:03:16.111Z,101408.22
2023-01-21T19:05:47.604Z,101407.34
2023-01-21T19:08:21.889Z,101399.09
2023-01-21T19:10:49.016Z,101408.47
2023-01-21T19:13:16.031Z,101399.72
2023-01-21T19:15:43.681Z,101399.09
2023-01-21T19:18:16.036Z,101402.06
2023-01-21T19:20:44.233Z,101403.94
2023-01-21T19:23:17.644Z,101415.34
2023-01-21T19:25:56.259Z,101405.13
2023-01-21T19:28:25.080Z,101405.81
2023-01-21T19:30:55.299Z,101395.38
2023-01-21T19:33:23.463Z,101393.41
2023-01-21T19:35:59.803Z,101390.47
2023-01-21T19:38:27.003Z,101392.41
2023-01-21T19:40:55.669Z,101389.78
2023-01-21T19:43:23.458Z,101381.75
2023-01-21T19:45:52.289Z,101403.25
2023-01-21T19:48:21.498Z,101387.81
2023-01-21T19:50:49.020Z,101390.06
2023-01-21T19:53:20.810Z,101383.38
2023-01-21T19:55:51.912Z,101395.09
2023-01-21T19:58:22.842Z,101400.22
2023-01-21T20:00:53.455Z,101393.44
2023-01-21T20:03:23.075Z,101395.78
2023-01-21T20:05:53.818Z,101388.38
2023-01-21T20:08:27.950Z,101389.81
2023-01-21T20:10:55.272Z,101390.69
2023-01-21T20:13:22.759Z,101390.88
2023-01-21T20:15:51.831Z,101398.34
2023-01-21T20:18:28.108Z,101405.25
2023-01-21T20:20:55.330Z,101400.19
2023-01-21T20:23:23.710Z,101402.56
2023-01-21T20:25:56.637Z,101399.06
2023-01-21T20:28:34.988Z,101395.47
2023-01-21T20:31:07.826Z,101392.16
2023-01-21T20:33:36.130Z,101391.66
2023-01-21T20:36:06.079Z,101379.97
2023-01-21T20:38:38.405Z,101394.72
2023-01-21T20:41:05.759Z,101392.16
2023-01-21T20:43:33.105Z,101374.88
2023-01-21T20:46:03.881Z,101384.16
2023-01-21T20:48:35.889Z,101374.75
2023-01-21T20:51:03.584Z,101385.97
2023-01-21T20:53:31.130Z,101389.31
2023-01-21T20:56:01.072Z,101379.72
2023-01-21T20:58:28.113Z,101379.94
2023-01-21T21:00:55.191Z,101366.09
2023-01-21T21:03:22.173Z,101372.03
2023-01-21T21:05:49.657Z,101367.94
2023-01-21T21:08:20.482Z,101369.78
2023-01-21T21:10:48.242Z,101380.16
2023-01-21T21:13:15.171Z,101374.66
2023-01-21T21:15:45.703Z,101373.78
2023-01-21T21:18:14.570Z,101365.75
2023-01-21T21:20:41.693Z,101366.09
2023-01-21T21:23:15.295Z,101362.75
2023-01-21T21:25:47.024Z,101372.69
2023-01-21T21:28:16.889Z,101370.22
2023-01-21T21:30:43.990Z,101363.38
2023-01-21T21:33:19.024Z,101359.75
2023-01-21T21:35:46.877Z,101373.47
2023-01-21T21:38:21.969Z,101363.28
2023-01-21T21:40:52.985Z,101366.75
2023-01-21T21:43:33.364Z,101357.34
2023-01-21T21:46:30.445Z,101344.81
2023-01-21T21:48:57.465Z,101350.59
2023-01-21T21:51:24.578Z,101366.19
2023-01-21T21:53:51.796Z,101361.81
2023-01-21T21:56:20.528Z,101363.69
2023-01-21T21:58:48.104Z,101372.34
2023-01-21T22:01:25.091Z,101371.50
2023-01-21T22:03:52.902Z,101368.28
2023-01-21T22:06:22.388Z,101362.53
2023-01-21T22:08:49.855Z,101361.44
2023-01-21T22:11:20.461Z,101364.16
2023-01-21T22:13:50.536Z,101369.38
2023-01-21T22:16:24.917Z,101373.50
2023-01-21T22:18:52.811Z,101365.91
2023-01-21T22:21:24.541Z,101376.31
2023-01-21T22:23:52.243Z,101370.94
2023-01-21T22:26:22.842Z,101375.44
2023-01-21T22:28:53.015Z,101375.66
2023-01-21T22:31:29.707Z,101370.31
2023-01-21T22:33:58.363Z,101360.41
2023-01-21T22:36:28.696Z,101365.31
2023-01-21T22:38:55.749Z,101359.66
2023-01-21T22:41:24.331Z,101355.31
2023-01-21T22:43:52.266Z,101353.66
2023-01-21T22:46:25.793Z,101356.88
2023-01-21T22:48:56.140Z,101342.66
2023-01-21T22:51:23.749Z,101352.03
2023-01-21T22:53:51.892Z,101347.03
2023-01-21T22:56:25.403Z,101339.34
2023-01-21T22:58:58.618Z,101338.47
2023-01-21T23:01:31.603Z,101336.81
2023-01-21T23:03:59.849Z,101326.78
2023-01-21T23:06:27.461Z,101332.69
2023-01-21T23:08:55.614Z,101323.03
2023-01-21T23:11:22.604Z,101322.41
2023-01-21T23:13:49.896Z,101326.69
2023-01-21T23:16:19.637Z,101324.63
2023-01-21T23:18:47.083Z,101319.91
2023-01-21T23:21:20.943Z,101319.13
2023-01-21T23:23:49.129Z,101313.13
2023-01-21T23:26:19.145Z,101314.91
2023-01-21T23:28:47.205Z,101306.34
2023-01-21T23:31:17.382Z,101307.13
2023-01-21T23:33:44.806Z,101307.69
2023-01-21T23:36:15.748Z,101302.91
2023-01-21T23:38:43.302Z,101302.97
2023-01-21T23:41:13.891Z,101300.41
2023-01-21T23:43:41.056Z,101300.56
2023-01-21T23:46:18.329Z,101296.28
2023-01-21T23:48:45.600Z,101294.44
2023-01-21T23:51:15.963Z,101294.72
2023-01-21T23:53:43.147Z,101289.47
2023-01-21T23:56:16.199Z,101283.78
2023-01-21T23:58:43.828Z,101284.63
